createdAt,value
2017-10-23T00:00:39.227Z,0
2017-10-23T00:01:19.726Z,0
2017-10-23T00:02:00.192Z,0
2017-10-23T00:02:40.661Z,0
2017-10-23T00:03:21.153Z,0
2017-10-23T00:04:01.636Z,0
2017-10-23T00:04:42.119Z,0
2017-10-23T00:05:22.600Z,0
2017-10-23T00:06:03.094Z,0
2017-10-23T00:06:43.570Z,0
2017-10-23T00:07:24.052Z,0
2017-10-23T00:08:04.542Z,0
2017-10-23T00:08:45.004Z,0
2017-10-23T00:09:25.481Z,0
2017-10-23T00:10:05.979Z,0
2017-10-23T00:10:46.469Z,0
2017-10-23T00:11:26.963Z,0
2017-10-23T00:12:07.440Z,0
2017-10-23T00:12:47.934Z,0
2017-10-23T00:13:28.433Z,0
2017-10-23T00:14:08.936Z,0
2017-10-23T00:14:49.407Z,0
2017-10-23T00:15:29.886Z,0
2017-10-23T00:16:10.384Z,31.57
2017-10-23T00:16:50.874Z,0
2017-10-23T00:17:31.366Z,0
2017-10-23T00:18:11.855Z,0
2017-10-23T00:18:52.344Z,31.54
2017-10-23T00:19:32.839Z,0
2017-10-23T00:20:13.291Z,0
2017-10-23T00:20:53.751Z,0
2017-10-23T00:21:34.240Z,0
2017-10-23T00:22:14.734Z,0
2017-10-23T00:22:55.231Z,0
2017-10-23T00:23:35.724Z,0
2017-10-23T00:24:16.222Z,0
2017-10-23T00:24:56.708Z,0
2017-10-23T00:25:37.178Z,31.56
2017-10-23T00:26:17.659Z,31.59
2017-10-23T00:26:58.153Z,31.57
2017-10-23T00:27:38.628Z,31.57
2017-10-23T00:28:19.075Z,31.59
2017-10-23T00:28:59.554Z,31.6
2017-10-23T00:29:40.045Z,31.6
2017-10-23T00:30:20.548Z,31.6
2017-10-23T00:31:01.016Z,31.6
2017-10-23T00:31:41.497Z,31.54
2017-10-23T00:32:21.988Z,31.57
2017-10-23T00:33:02.465Z,31.59
2017-10-23T00:33:42.935Z,31.61
2017-10-23T00:34:23.415Z,31.57
2017-10-23T00:35:03.893Z,31.61
2017-10-23T00:35:44.381Z,31.57
2017-10-23T00:36:24.878Z,31.52
2017-10-23T00:37:05.364Z,0
2017-10-23T00:37:45.828Z,0
2017-10-23T00:38:26.315Z,31.57
2017-10-23T00:39:06.815Z,0
2017-10-23T00:39:47.293Z,0
2017-10-23T00:40:27.803Z,31.54
2017-10-23T00:41:08.291Z,0
2017-10-23T00:41:48.772Z,31.54
2017-10-23T00:42:29.270Z,0
2017-10-23T00:43:09.750Z,31.54
2017-10-23T00:43:50.236Z,0
2017-10-23T00:44:30.718Z,31.59
2017-10-23T00:46:43.430Z,31.51
2017-10-23T00:47:23.904Z,31.51
2017-10-23T00:48:04.372Z,0
2017-10-23T00:48:44.862Z,0
2017-10-23T00:49:25.339Z,0
2017-10-23T00:50:05.830Z,31.54
2017-10-23T00:50:46.307Z,0
2017-10-23T00:51:26.795Z,31.5
2017-10-23T00:52:07.274Z,0
2017-10-23T00:52:47.753Z,0
2017-10-23T00:53:28.249Z,31.51
2017-10-23T00:54:08.744Z,0
2017-10-23T00:54:49.253Z,31.52
2017-10-23T00:55:29.740Z,31.54
2017-10-23T00:56:10.228Z,31.52
2017-10-23T00:56:50.712Z,0
2017-10-23T00:57:31.200Z,31.46
2017-10-23T00:58:11.672Z,31.48
2017-10-23T00:58:52.162Z,31.48
2017-10-23T00:59:32.652Z,31.5
2017-10-23T01:00:13.135Z,31.49
2017-10-23T01:00:53.609Z,31.52
2017-10-23T01:01:34.095Z,31.48
2017-10-23T01:02:14.591Z,31.51
2017-10-23T01:02:55.067Z,0
2017-10-23T01:03:35.563Z,0
2017-10-23T01:04:16.072Z,31.52
2017-10-23T01:04:56.565Z,31.49
2017-10-23T01:05:37.049Z,31.52
2017-10-23T01:06:17.541Z,31.51
2017-10-23T01:06:58.010Z,0
2017-10-23T01:07:38.511Z,0
2017-10-23T01:08:19.007Z,31.54
2017-10-23T01:08:59.497Z,31.5
2017-10-23T01:09:39.988Z,31.49
2017-10-23T01:10:20.468Z,31.51
2017-10-23T01:11:00.974Z,0
2017-10-23T01:11:41.435Z,31.54
2017-10-23T01:12:21.923Z,31.54
2017-10-23T01:13:02.405Z,31.52
2017-10-23T01:13:42.882Z,31.54
2017-10-23T01:14:23.364Z,31.56
2017-10-23T01:15:03.866Z,31.52
2017-10-23T01:15:44.376Z,31.54
2017-10-23T01:16:24.808Z,31.52
2017-10-23T01:18:42.606Z,31.51
2017-10-23T01:19:23.090Z,0
2017-10-23T01:20:03.572Z,0
2017-10-23T01:20:44.066Z,0
2017-10-23T01:21:24.550Z,31.49
2017-10-23T01:22:05.014Z,31.49
2017-10-23T01:22:45.484Z,0
2017-10-23T01:24:58.172Z,31.48
2017-10-23T01:25:38.653Z,0
2017-10-23T01:26:19.138Z,0
2017-10-23T01:26:59.623Z,0
2017-10-23T01:27:40.126Z,0
2017-10-23T01:28:20.610Z,0
2017-10-23T01:29:01.101Z,0
2017-10-23T01:29:41.593Z,0
2017-10-23T01:30:22.079Z,31.5
2017-10-23T01:31:02.580Z,0
2017-10-23T01:31:43.068Z,0
2017-10-23T01:32:23.555Z,0
2017-10-23T01:33:04.032Z,0
2017-10-23T01:33:44.513Z,0
2017-10-23T01:34:24.990Z,0
2017-10-23T01:35:05.474Z,0
2017-10-23T01:35:45.965Z,0
2017-10-23T01:36:26.454Z,0
2017-10-23T01:37:06.948Z,0
2017-10-23T01:37:47.429Z,0
2017-10-23T01:38:27.917Z,0
2017-10-23T01:39:08.415Z,0
2017-10-23T01:39:48.919Z,0
2017-10-23T01:40:29.405Z,0
2017-10-23T01:41:09.903Z,0
2017-10-23T01:41:50.415Z,0
2017-10-23T01:42:30.882Z,0
2017-10-23T01:43:11.359Z,0
2017-10-23T01:43:51.838Z,0
2017-10-23T01:44:32.348Z,0
2017-10-23T01:45:12.852Z,0
2017-10-23T01:45:53.353Z,0
2017-10-23T01:46:33.852Z,0
2017-10-23T01:47:14.339Z,0
2017-10-23T01:47:54.828Z,25
2017-10-23T01:48:35.320Z,3.43
2017-10-23T01:49:15.802Z,3.43
2017-10-23T01:49:56.282Z,3.43
2017-10-23T01:50:36.787Z,0
2017-10-23T01:51:17.252Z,3.43
2017-10-23T01:51:57.738Z,3.43
2017-10-23T01:52:38.213Z,3.43
2017-10-23T01:53:18.697Z,3.43
2017-10-23T01:53:59.186Z,100
2017-10-23T01:54:39.661Z,3.43
2017-10-23T01:55:20.150Z,3.43
2017-10-23T01:56:00.636Z,3.43
2017-10-23T01:56:41.124Z,3.43
2017-10-23T01:57:21.617Z,3.43
2017-10-23T01:58:02.106Z,3.43
2017-10-23T01:58:42.597Z,3.43
2017-10-23T01:59:23.080Z,3.43
2017-10-23T02:00:03.574Z,3.43
2017-10-23T02:00:44.064Z,3.43
2017-10-23T02:01:24.560Z,3.43
2017-10-23T02:02:05.035Z,1.56
2017-10-23T02:02:45.525Z,3.43
2017-10-23T02:03:25.988Z,12.5
2017-10-23T02:04:06.470Z,3.43
2017-10-23T02:04:46.961Z,0.78
2017-10-23T02:05:27.426Z,25
2017-10-23T02:06:07.895Z,3.43
2017-10-23T02:06:48.377Z,3.43
2017-10-23T02:07:28.863Z,12.5
2017-10-23T02:08:09.362Z,0.39
2017-10-23T02:08:49.848Z,3.43
2017-10-23T02:09:30.337Z,0.39
2017-10-23T02:10:10.838Z,3.43
2017-10-23T02:10:51.304Z,3.43
2017-10-23T02:11:31.792Z,3.43
2017-10-23T02:12:12.286Z,3.43
2017-10-23T02:12:52.782Z,0.39
2017-10-23T02:13:33.274Z,3.43
2017-10-23T02:14:13.742Z,0.39
2017-10-23T02:14:54.220Z,3.43
2017-10-23T02:15:34.704Z,1.56
2017-10-23T02:16:15.180Z,100
2017-10-23T02:16:55.679Z,0.39
2017-10-23T02:17:36.160Z,3.43
2017-10-23T02:18:16.635Z,0.39
2017-10-23T02:18:57.125Z,0
2017-10-23T02:19:37.623Z,3.43
2017-10-23T02:20:18.104Z,3.12
2017-10-23T02:22:35.903Z,3.43
2017-10-23T02:23:16.402Z,3.43
2017-10-23T02:23:56.895Z,0
2017-10-23T02:24:37.395Z,0.02
2017-10-23T02:25:17.884Z,0.1
2017-10-23T02:25:58.360Z,0
2017-10-23T02:26:38.832Z,3.43
2017-10-23T02:27:19.300Z,0.39
2017-10-23T02:27:59.786Z,0
2017-10-23T02:28:40.284Z,0
2017-10-23T02:29:20.769Z,3.43
2017-10-23T02:30:01.260Z,0
2017-10-23T02:30:41.762Z,0
2017-10-23T02:31:22.236Z,0
2017-10-23T02:32:02.711Z,0
2017-10-23T02:32:43.187Z,0
2017-10-23T02:33:23.617Z,0.1
2017-10-23T02:34:04.063Z,3.43
2017-10-23T02:34:44.512Z,3.43
2017-10-23T02:35:24.974Z,0
2017-10-23T02:36:05.442Z,0
2017-10-23T02:36:45.912Z,0
2017-10-23T02:37:26.417Z,0
2017-10-23T02:38:06.895Z,0
2017-10-23T02:38:47.369Z,0
2017-10-23T02:41:00.041Z,0
2017-10-23T02:41:40.535Z,0
2017-10-23T02:42:21.026Z,0
2017-10-23T02:43:01.510Z,0
2017-10-23T02:43:42.011Z,0
2017-10-23T02:44:22.494Z,0
2017-10-23T02:45:02.978Z,0
2017-10-23T02:45:43.450Z,0
2017-10-23T02:46:23.937Z,0
2017-10-23T02:47:04.432Z,0
2017-10-23T02:47:44.910Z,0
2017-10-23T02:48:25.398Z,0
2017-10-23T02:49:05.874Z,0
2017-10-23T02:49:46.361Z,0
2017-10-23T02:50:26.856Z,3.43
2017-10-23T02:51:07.348Z,0
2017-10-23T02:51:47.840Z,0
2017-10-23T02:52:28.323Z,0
2017-10-23T02:53:08.804Z,0
2017-10-23T02:53:49.298Z,0
2017-10-23T02:54:29.788Z,0
2017-10-23T02:55:10.257Z,0
2017-10-23T02:55:50.737Z,0
2017-10-23T02:56:31.195Z,0
2017-10-23T02:57:11.672Z,0
2017-10-23T02:57:52.148Z,0
2017-10-23T02:58:32.635Z,0
2017-10-23T03:00:30.264Z,0
2017-10-23T03:01:10.753Z,0
2017-10-23T03:01:51.235Z,0
2017-10-23T03:02:31.712Z,0
2017-10-23T03:03:12.224Z,0
2017-10-23T03:03:52.705Z,0
2017-10-23T03:04:33.198Z,0
2017-10-23T03:05:13.690Z,0
2017-10-23T03:05:54.182Z,0
2017-10-23T03:06:34.684Z,0
2017-10-23T03:07:15.212Z,0
2017-10-23T03:07:55.708Z,0
2017-10-23T03:08:36.200Z,0
2017-10-23T03:09:16.722Z,0
2017-10-23T03:09:57.157Z,0
2017-10-23T03:10:37.641Z,0
2017-10-23T03:11:18.121Z,0
2017-10-23T03:11:58.610Z,0
2017-10-23T03:12:39.106Z,0
2017-10-23T03:13:19.633Z,0
2017-10-23T03:14:00.094Z,0
2017-10-23T03:14:40.563Z,0
2017-10-23T03:15:21.065Z,0
2017-10-23T03:16:01.561Z,0
2017-10-23T03:16:42.011Z,0
2017-10-23T03:17:22.504Z,0
2017-10-23T03:18:02.983Z,0
2017-10-23T03:18:43.469Z,0
2017-10-23T03:19:23.961Z,0
2017-10-23T03:20:04.431Z,0
2017-10-23T03:22:22.212Z,0
2017-10-23T03:23:02.744Z,0
2017-10-23T03:23:43.240Z,0
2017-10-23T03:24:23.732Z,0
2017-10-23T03:25:04.233Z,0
2017-10-23T03:25:44.721Z,31.35
2017-10-23T03:26:25.208Z,0
2017-10-23T03:27:05.701Z,0
2017-10-23T03:27:46.200Z,31.37
2017-10-23T03:28:26.658Z,31.4
2017-10-23T03:29:07.150Z,0
2017-10-23T03:29:47.639Z,0
2017-10-23T03:30:28.117Z,31.46
2017-10-23T03:31:08.596Z,0
2017-10-23T03:31:49.059Z,0
2017-10-23T03:32:29.556Z,0
2017-10-23T03:33:10.027Z,0
2017-10-23T03:33:50.531Z,31.4
2017-10-23T03:34:31.023Z,0
2017-10-23T03:35:11.501Z,0
2017-10-23T03:35:52.009Z,0
2017-10-23T03:36:32.494Z,0
2017-10-23T03:37:12.941Z,0
2017-10-23T03:39:25.669Z,0
2017-10-23T03:40:06.120Z,0
2017-10-23T03:40:46.618Z,0
2017-10-23T03:41:27.104Z,0
2017-10-23T03:42:07.572Z,0
2017-10-23T03:42:48.056Z,0
2017-10-23T03:43:28.553Z,0
2017-10-23T03:44:09.014Z,31.35
2017-10-23T03:44:49.490Z,31.34
2017-10-23T03:45:29.977Z,31.35
2017-10-23T03:46:10.450Z,31.37
2017-10-23T03:46:50.951Z,31.35
2017-10-23T03:47:31.436Z,0
2017-10-23T03:48:11.920Z,0
2017-10-23T03:48:52.402Z,0
2017-10-23T03:49:32.878Z,31.37
2017-10-23T03:50:13.370Z,31.32
2017-10-23T03:50:53.846Z,31.35
2017-10-23T03:51:34.323Z,31.38
2017-10-23T03:52:14.819Z,0
2017-10-23T03:52:55.305Z,0
2017-10-23T03:54:52.927Z,31.4
2017-10-23T03:55:33.395Z,31.38
2017-10-23T03:56:13.868Z,31.41
2017-10-23T03:56:54.360Z,31.39
2017-10-23T03:57:34.829Z,31.43
2017-10-23T03:58:15.314Z,0
2017-10-23T03:58:55.817Z,31.38
2017-10-23T03:59:36.297Z,0
2017-10-23T04:00:16.794Z,0
2017-10-23T04:00:57.266Z,0
2017-10-23T04:01:37.769Z,0
2017-10-23T04:02:18.239Z,0
2017-10-23T04:02:58.737Z,0
2017-10-23T04:03:39.206Z,0
2017-10-23T04:04:19.687Z,0
2017-10-23T04:05:00.169Z,0
2017-10-23T04:05:40.699Z,0
2017-10-23T04:06:21.130Z,31.35
2017-10-23T04:07:01.621Z,0
2017-10-23T04:07:42.122Z,0
2017-10-23T04:08:22.598Z,31.4
2017-10-23T04:09:03.090Z,0
2017-10-23T04:09:43.584Z,31.4
2017-10-23T04:10:24.076Z,0
2017-10-23T04:11:04.586Z,0
2017-10-23T04:11:45.068Z,0
2017-10-23T04:12:25.528Z,0
2017-10-23T04:13:06.024Z,0
2017-10-23T04:13:46.512Z,0
2017-10-23T04:14:27.002Z,0
2017-10-23T04:15:07.491Z,0
2017-10-23T04:17:20.203Z,0
2017-10-23T04:18:00.692Z,0
2017-10-23T04:18:41.172Z,0
2017-10-23T04:19:21.652Z,0
2017-10-23T04:20:02.158Z,31.4
2017-10-23T04:20:42.595Z,31.39
2017-10-23T04:21:23.085Z,31.45
2017-10-23T04:22:03.592Z,31.46
2017-10-23T04:22:44.072Z,31.43
2017-10-23T04:23:24.561Z,0
2017-10-23T04:24:05.059Z,31.43
2017-10-23T04:24:45.547Z,0
2017-10-23T04:25:26.034Z,0
2017-10-23T04:26:06.502Z,0
2017-10-23T04:26:46.999Z,31.48
2017-10-23T04:27:27.484Z,31.43
2017-10-23T04:28:07.970Z,0
2017-10-23T04:28:48.442Z,0
2017-10-23T04:29:28.935Z,0
2017-10-23T04:30:09.426Z,0
2017-10-23T04:30:49.905Z,0
2017-10-23T04:31:30.379Z,0
2017-10-23T04:32:10.861Z,0
2017-10-23T04:32:51.349Z,0
2017-10-23T04:33:31.864Z,0
2017-10-23T04:34:12.348Z,0
2017-10-23T04:34:52.840Z,0
2017-10-23T04:35:33.316Z,31.49
2017-10-23T04:36:13.796Z,31.46
2017-10-23T04:36:54.272Z,0
2017-10-23T04:38:41.754Z,0
2017-10-23T04:39:22.248Z,31.54
2017-10-23T04:40:02.715Z,31.56
2017-10-23T04:40:43.204Z,31.54
2017-10-23T04:41:23.691Z,0
2017-10-23T04:42:04.173Z,31.51
2017-10-23T04:42:44.646Z,31.5
2017-10-23T04:43:25.141Z,31.52
2017-10-23T04:44:05.628Z,0
2017-10-23T04:44:46.138Z,31.54
2017-10-23T04:45:26.623Z,31.56
2017-10-23T04:46:07.107Z,0
2017-10-23T04:46:47.602Z,31.52
2017-10-23T04:47:28.076Z,31.52
2017-10-23T04:48:08.552Z,31.59
2017-10-23T04:48:49.040Z,31.57
2017-10-23T04:49:29.535Z,31.61
2017-10-23T04:50:10.036Z,31.62
2017-10-23T04:50:50.525Z,31.54
2017-10-23T04:51:30.993Z,31.59
2017-10-23T04:52:11.453Z,31.56
2017-10-23T04:52:51.894Z,31.63
2017-10-23T04:54:39.350Z,0
2017-10-23T04:55:19.832Z,31.61
2017-10-23T04:56:00.305Z,31.57
2017-10-23T04:56:40.778Z,31.62
2017-10-23T04:57:21.273Z,31.63
2017-10-23T04:58:01.753Z,31.62
2017-10-23T04:58:42.235Z,31.62
2017-10-23T04:59:22.720Z,31.69
2017-10-23T05:00:03.212Z,31.66
2017-10-23T05:00:43.708Z,31.63
2017-10-23T05:01:24.201Z,31.6
2017-10-23T05:02:04.687Z,31.56
2017-10-23T05:02:45.170Z,31.62
2017-10-23T05:03:25.678Z,31.61
2017-10-23T05:04:06.162Z,31.62
2017-10-23T05:04:46.660Z,31.63
2017-10-23T05:05:27.179Z,31.59
2017-10-23T05:06:07.662Z,31.62
2017-10-23T05:06:48.156Z,31.59
2017-10-23T05:07:28.633Z,31.59
2017-10-23T05:08:09.117Z,31.59
2017-10-23T05:08:49.599Z,31.64
2017-10-23T05:09:30.082Z,31.66
2017-10-23T05:10:10.595Z,31.64
2017-10-23T05:10:51.112Z,31.63
2017-10-23T05:11:31.591Z,31.64
2017-10-23T05:12:12.069Z,31.68
2017-10-23T05:12:52.539Z,31.68
2017-10-23T05:13:33.015Z,31.66
2017-10-23T05:14:13.566Z,31.62
2017-10-23T05:14:54.054Z,31.63
2017-10-23T05:15:34.536Z,0
2017-10-23T05:16:15.036Z,31.59
2017-10-23T05:16:55.512Z,31.63
2017-10-23T05:17:36.031Z,31.65
2017-10-23T05:18:16.523Z,31.59
2017-10-23T05:18:56.987Z,31.63
2017-10-23T05:19:37.471Z,31.63
2017-10-23T05:20:17.954Z,31.63
2017-10-23T05:20:58.433Z,31.63
2017-10-23T05:21:38.937Z,31.66
2017-10-23T05:22:19.431Z,31.63
2017-10-23T05:22:59.917Z,31.68
2017-10-23T05:23:40.424Z,31.66
2017-10-23T05:24:20.873Z,31.62
2017-10-23T05:25:01.362Z,31.63
2017-10-23T05:25:41.850Z,31.6
2017-10-23T05:26:22.327Z,31.59
2017-10-23T05:27:02.818Z,31.56
2017-10-23T05:27:43.321Z,31.57
2017-10-23T05:28:23.813Z,31.59
2017-10-23T05:29:04.279Z,31.57
2017-10-23T05:29:45.337Z,31.57
2017-10-23T05:30:25.812Z,0
2017-10-23T05:31:06.311Z,0
2017-10-23T05:31:46.794Z,31.52
2017-10-23T05:32:27.282Z,0
2017-10-23T05:33:07.784Z,0
2017-10-23T05:33:48.302Z,0
2017-10-23T05:34:28.781Z,31.51
2017-10-23T05:35:09.278Z,31.54
2017-10-23T05:35:49.770Z,31.57
2017-10-23T05:36:30.259Z,31.52
2017-10-23T05:37:10.762Z,0
2017-10-23T05:37:51.237Z,0
2017-10-23T05:38:31.727Z,31.52
2017-10-23T05:39:12.213Z,31.51
2017-10-23T05:41:04.823Z,0
2017-10-23T05:41:45.366Z,0
2017-10-23T05:42:25.863Z,0
2017-10-23T05:43:06.390Z,0
2017-10-23T05:43:46.908Z,0
2017-10-23T05:44:27.412Z,0
2017-10-23T05:45:07.894Z,0
2017-10-23T05:45:48.347Z,0
2017-10-23T05:48:01.102Z,0
2017-10-23T05:48:41.586Z,31.56
2017-10-23T05:49:22.039Z,0
2017-10-23T05:50:02.543Z,0
2017-10-23T05:50:43.006Z,0
2017-10-23T05:51:23.451Z,0
2017-10-23T05:52:03.888Z,0
2017-10-23T05:52:44.407Z,0
2017-10-23T05:53:24.893Z,0
2017-10-23T05:54:05.393Z,0
2017-10-23T05:54:45.788Z,0
2017-10-23T05:55:26.259Z,0
2017-10-23T05:56:06.705Z,0
2017-10-23T05:56:47.531Z,0
2017-10-23T05:57:27.985Z,0
2017-10-23T05:58:08.412Z,0
2017-10-23T05:58:48.825Z,0
2017-10-23T05:59:29.307Z,0
2017-10-23T06:00:09.830Z,0
2017-10-23T06:00:50.400Z,0
2017-10-23T06:01:31.056Z,0
2017-10-23T06:02:11.521Z,0
2017-10-23T06:02:51.942Z,31.6
2017-10-23T06:03:32.421Z,31.61
2017-10-23T06:04:12.913Z,31.64
2017-10-23T06:04:53.527Z,31.65
2017-10-23T06:05:33.973Z,31.63
2017-10-23T06:06:14.417Z,31.62
2017-10-23T06:06:54.850Z,31.63
2017-10-23T06:07:35.350Z,31.68
2017-10-23T06:09:32.965Z,31.7
2017-10-23T06:10:13.476Z,31.73
2017-10-23T06:10:53.994Z,31.68
2017-10-23T06:11:34.550Z,31.73
2017-10-23T06:12:15.043Z,31.68
2017-10-23T06:12:55.511Z,31.73
2017-10-23T06:13:36.016Z,31.79
2017-10-23T06:14:16.517Z,31.74
2017-10-23T06:14:57.027Z,31.71
2017-10-23T06:15:37.483Z,31.66
2017-10-23T06:16:17.968Z,31.71
2017-10-23T06:16:58.455Z,31.75
2017-10-23T06:17:38.966Z,31.69
2017-10-23T06:18:19.431Z,31.73
2017-10-23T06:18:59.921Z,31.75
2017-10-23T06:19:40.433Z,31.75
2017-10-23T06:20:20.923Z,31.74
2017-10-23T06:21:01.491Z,31.75
2017-10-23T06:21:42.025Z,31.74
2017-10-23T06:22:22.585Z,31.79
2017-10-23T06:23:03.097Z,31.75
2017-10-23T06:23:43.634Z,31.76
2017-10-23T06:24:24.200Z,31.77
2017-10-23T06:25:04.825Z,31.84
2017-10-23T06:25:45.362Z,31.74
2017-10-23T06:26:25.908Z,31.71
2017-10-23T06:27:06.427Z,31.69
2017-10-23T06:27:46.975Z,31.69
2017-10-23T06:28:27.486Z,31.7
2017-10-23T06:29:08.002Z,31.73
2017-10-23T06:29:48.524Z,31.73
2017-10-23T06:30:29.010Z,31.76
2017-10-23T06:31:09.495Z,31.75
2017-10-23T06:33:27.321Z,31.75
2017-10-23T06:34:07.793Z,31.79
2017-10-23T06:34:48.275Z,31.76
2017-10-23T06:35:28.731Z,31.8
2017-10-23T06:36:09.226Z,31.76
2017-10-23T06:36:49.706Z,31.82
2017-10-23T06:37:30.187Z,31.77
2017-10-23T06:38:10.679Z,31.79
2017-10-23T06:38:51.276Z,31.79
2017-10-23T06:39:31.790Z,31.79
2017-10-23T06:40:12.283Z,31.81
2017-10-23T06:40:52.785Z,31.79
2017-10-23T06:42:45.293Z,31.75
2017-10-23T06:43:25.787Z,31.77
2017-10-23T06:44:06.283Z,31.79
2017-10-23T06:44:46.770Z,31.72
2017-10-23T06:45:27.264Z,31.75
2017-10-23T06:46:07.745Z,31.77
2017-10-23T06:46:48.259Z,31.74
2017-10-23T06:47:28.783Z,31.73
2017-10-23T06:48:09.226Z,31.75
2017-10-23T06:48:49.708Z,31.75
2017-10-23T06:49:30.172Z,31.76
2017-10-23T06:50:10.675Z,31.75
2017-10-23T06:50:51.160Z,31.76
2017-10-23T06:51:31.646Z,31.72
2017-10-23T06:52:12.152Z,31.74
2017-10-23T06:52:52.659Z,31.82
2017-10-23T06:53:33.188Z,31.74
2017-10-23T06:54:13.716Z,31.7
2017-10-23T06:54:54.219Z,31.76
2017-10-23T06:55:34.701Z,31.76
2017-10-23T06:56:15.193Z,31.76
2017-10-23T06:56:55.652Z,31.82
2017-10-23T06:57:36.147Z,31.86
2017-10-23T06:58:16.652Z,31.89
2017-10-23T06:58:57.140Z,31.98
2017-10-23T06:59:37.628Z,31.99
2017-10-23T07:00:18.098Z,31.99
2017-10-23T07:00:58.557Z,32.01
2017-10-23T07:01:39.039Z,32.01
2017-10-23T07:02:19.516Z,32.04
2017-10-23T07:02:59.935Z,32.08
2017-10-23T07:03:40.417Z,32.09
2017-10-23T07:04:20.924Z,32.07
2017-10-23T07:05:01.402Z,32.09
2017-10-23T07:05:41.943Z,32.07
2017-10-23T07:06:22.426Z,32.1
2017-10-23T07:07:02.890Z,32.01
2017-10-23T07:07:43.427Z,32.03
2017-10-23T07:08:23.902Z,32.04
2017-10-23T07:09:04.369Z,32.08
2017-10-23T07:09:44.834Z,32.14
2017-10-23T07:10:25.330Z,32.15
2017-10-23T07:11:05.839Z,32.17
2017-10-23T07:11:46.308Z,32.1
2017-10-23T07:12:26.754Z,32.13
2017-10-23T07:13:07.200Z,32.12
2017-10-23T07:14:54.658Z,32.04
2017-10-23T07:15:35.149Z,32.06
2017-10-23T07:16:15.638Z,32.04
2017-10-23T07:16:56.135Z,32.04
2017-10-23T07:17:36.623Z,32.08
2017-10-23T07:18:17.131Z,32.09
2017-10-23T07:18:57.588Z,32.09
2017-10-23T07:19:38.083Z,32.08
2017-10-23T07:20:18.581Z,32.06
2017-10-23T07:20:59.088Z,32.06
2017-10-23T07:21:39.581Z,32.09
2017-10-23T07:22:20.082Z,32.03
2017-10-23T07:23:00.591Z,31.99
2017-10-23T07:23:41.100Z,32.06
2017-10-23T07:24:21.632Z,32.06
2017-10-23T07:25:02.102Z,32.1
2017-10-23T07:25:42.543Z,32.15
2017-10-23T07:27:40.190Z,32.26
2017-10-23T07:28:20.694Z,32.29
2017-10-23T07:29:01.171Z,32.31
2017-10-23T07:29:41.654Z,32.32
2017-10-23T07:30:22.144Z,32.42
2017-10-23T07:31:02.652Z,32.4
2017-10-23T07:31:43.176Z,32.41
2017-10-23T07:34:00.964Z,32.48
2017-10-23T07:34:41.455Z,32.45
2017-10-23T07:35:21.958Z,32.42
2017-10-23T07:36:02.417Z,32.29
2017-10-23T07:36:42.885Z,32.29
2017-10-23T07:37:23.366Z,32.32
2017-10-23T07:39:36.134Z,32.55
2017-10-23T07:40:16.620Z,32.57
2017-10-23T07:40:57.198Z,32.59
2017-10-23T07:41:37.752Z,32.67
2017-10-23T07:42:18.323Z,32.7
2017-10-23T07:42:58.902Z,32.75
2017-10-23T07:43:40.132Z,32.79
2017-10-23T07:44:20.792Z,32.86
2017-10-23T07:45:01.380Z,32.85
2017-10-23T07:45:42.013Z,32.84
2017-10-23T07:46:22.591Z,32.86
2017-10-23T07:47:03.235Z,32.92
2017-10-23T07:47:43.749Z,32.88
2017-10-23T07:48:24.299Z,32.77
2017-10-23T07:49:04.869Z,32.8
2017-10-23T07:49:45.394Z,32.81
2017-10-23T07:50:25.973Z,32.82
2017-10-23T07:51:06.546Z,32.7
2017-10-23T07:51:47.106Z,32.7
2017-10-23T07:52:27.651Z,32.84
2017-10-23T07:53:08.262Z,32.88
2017-10-23T07:53:48.861Z,32.89
2017-10-23T07:54:29.420Z,32.95
2017-10-23T07:55:10.018Z,32.95
2017-10-23T07:55:50.667Z,32.88
2017-10-23T07:56:31.311Z,32.89
2017-10-23T07:57:11.930Z,32.8
2017-10-23T07:57:52.535Z,32.84
2017-10-23T07:58:33.077Z,32.77
2017-10-23T07:59:13.725Z,32.77
2017-10-23T07:59:54.274Z,32.79
2017-10-23T08:00:34.833Z,32.76
2017-10-23T08:01:15.421Z,32.65
2017-10-23T08:01:56.024Z,32.63
2017-10-23T08:02:36.583Z,32.59
2017-10-23T08:03:17.131Z,32.62
2017-10-23T08:03:57.665Z,32.66
2017-10-23T08:04:38.197Z,32.75
2017-10-23T08:05:18.712Z,32.79
2017-10-23T08:05:59.224Z,32.83
2017-10-23T08:06:39.743Z,32.92
2017-10-23T08:07:20.319Z,32.95
2017-10-23T08:08:00.893Z,33.01
2017-10-23T08:08:41.477Z,33.11
2017-10-23T08:09:22.062Z,33.18
2017-10-23T08:10:02.683Z,33.34
2017-10-23T08:10:43.248Z,33.29
2017-10-23T08:11:23.793Z,33.43
2017-10-23T08:12:04.340Z,33.46
2017-10-23T08:12:44.928Z,33.54
2017-10-23T08:13:25.538Z,33.7
2017-10-23T08:14:06.132Z,33.75
2017-10-23T08:14:46.649Z,33.68
2017-10-23T08:15:27.141Z,33.51
2017-10-23T08:16:07.611Z,33.62
2017-10-23T08:16:48.118Z,33.64
2017-10-23T08:17:28.582Z,33.46
2017-10-23T08:18:09.019Z,33.26
2017-10-23T08:18:49.493Z,33.23
2017-10-23T08:19:30.001Z,33.23
2017-10-23T08:20:10.488Z,33.25
2017-10-23T08:20:50.978Z,33.15
2017-10-23T08:21:31.604Z,32.92
2017-10-23T08:22:12.082Z,32.98
2017-10-23T08:22:52.653Z,33.06
2017-10-23T08:23:33.163Z,33.09
2017-10-23T08:24:13.700Z,32.95
2017-10-23T08:24:54.260Z,32.95
2017-10-23T08:25:34.747Z,32.83
2017-10-23T08:26:15.201Z,32.86
2017-10-23T08:26:55.689Z,32.9
2017-10-23T08:27:36.164Z,32.89
2017-10-23T08:28:16.614Z,32.9
2017-10-23T08:28:57.084Z,32.85
2017-10-23T08:29:37.542Z,32.79
2017-10-23T08:30:17.998Z,32.85
2017-10-23T08:30:58.519Z,32.9
2017-10-23T08:31:39.001Z,32.9
2017-10-23T08:33:31.557Z,32.9
2017-10-23T08:34:12.028Z,33.01
2017-10-23T08:34:52.542Z,33.01
2017-10-23T08:35:33.108Z,33.04
2017-10-23T08:36:13.829Z,33.04
2017-10-23T08:36:54.353Z,32.99
2017-10-23T08:37:34.808Z,33.07
2017-10-23T08:38:15.342Z,33.04
2017-10-23T08:38:55.792Z,33.04
2017-10-23T08:39:36.385Z,33.03
2017-10-23T08:40:17.879Z,32.97
2017-10-23T08:40:58.399Z,33
2017-10-23T08:41:39.040Z,32.97
2017-10-23T08:42:19.613Z,33.04
2017-10-23T08:43:00.216Z,33.1
2017-10-23T08:43:40.859Z,33.12
2017-10-23T08:44:21.521Z,33.12
2017-10-23T08:45:02.122Z,33.12
2017-10-23T08:45:42.834Z,33.08
2017-10-23T08:46:23.381Z,33.08
2017-10-23T08:47:03.987Z,33.01
2017-10-23T08:47:44.593Z,32.98
2017-10-23T08:48:25.132Z,33.09
2017-10-23T08:49:05.734Z,33.22
2017-10-23T08:49:46.354Z,33.15
2017-10-23T08:50:26.946Z,33.11
2017-10-23T08:51:07.580Z,33.11
2017-10-23T08:51:48.188Z,33.09
2017-10-23T08:52:28.763Z,33.17
2017-10-23T08:53:09.402Z,33.17
2017-10-23T08:53:50.036Z,33.15
2017-10-23T08:54:30.672Z,33.17
2017-10-23T08:55:11.218Z,33.15
2017-10-23T08:55:51.833Z,33.2
2017-10-23T08:56:32.420Z,33.22
2017-10-23T08:57:13.124Z,33.2
2017-10-23T08:57:53.780Z,33.22
2017-10-23T08:58:34.971Z,33.21
2017-10-23T08:59:15.625Z,33.2
2017-10-23T08:59:56.209Z,33.18
2017-10-23T09:00:36.807Z,33.19
2017-10-23T09:01:17.405Z,33.09
2017-10-23T09:01:57.964Z,33.17
2017-10-23T09:02:38.538Z,33.26
2017-10-23T09:03:19.093Z,33.31
2017-10-23T09:03:59.692Z,33.31
2017-10-23T09:04:40.362Z,33.41
2017-10-23T09:05:20.973Z,33.4
2017-10-23T09:06:01.610Z,33.45
2017-10-23T09:06:42.160Z,33.52
2017-10-23T09:07:22.600Z,33.51
2017-10-23T09:08:03.041Z,33.58
2017-10-23T09:08:43.538Z,33.57
2017-10-23T09:09:24.002Z,33.74
2017-10-23T09:10:04.471Z,33.67
2017-10-23T09:10:44.933Z,33.64
2017-10-23T09:11:25.401Z,33.74
2017-10-23T09:12:05.896Z,33.77
2017-10-23T09:12:46.528Z,33.9
2017-10-23T09:13:26.975Z,33.84
2017-10-23T09:14:07.433Z,33.86
2017-10-23T09:15:54.965Z,33.48
2017-10-23T09:16:35.462Z,33.57
2017-10-23T09:17:15.943Z,33.62
2017-10-23T09:17:56.437Z,33.62
2017-10-23T09:18:37.016Z,33.72
2017-10-23T09:19:17.657Z,33.8
2017-10-23T09:19:58.210Z,33.69
2017-10-23T09:20:38.861Z,33.63
2017-10-23T09:21:19.418Z,33.76
2017-10-23T09:22:00.008Z,33.75
2017-10-23T09:22:40.662Z,33.8
2017-10-23T09:23:21.234Z,33.78
2017-10-23T09:24:01.843Z,33.76
2017-10-23T09:24:42.409Z,33.74
2017-10-23T09:25:23.028Z,33.88
2017-10-23T09:26:03.521Z,33.8
2017-10-23T09:26:44.054Z,33.86
2017-10-23T09:27:24.532Z,33.97
2017-10-23T09:28:05.121Z,34
2017-10-23T09:28:45.776Z,33.95
2017-10-23T09:29:26.219Z,34.03
2017-10-23T09:30:06.744Z,34.01
2017-10-23T09:30:47.184Z,33.97
2017-10-23T09:31:27.722Z,33.92
2017-10-23T09:32:08.250Z,33.97
2017-10-23T09:32:48.716Z,33.9
2017-10-23T09:33:29.274Z,33.94
2017-10-23T09:34:09.780Z,33.94
2017-10-23T09:34:50.353Z,33.97
2017-10-23T09:35:30.847Z,34.01
2017-10-23T09:36:11.288Z,34.01
2017-10-23T09:36:51.805Z,33.97
2017-10-23T09:37:32.269Z,34.01
2017-10-23T09:38:12.757Z,34.01
2017-10-23T09:38:53.218Z,33.9
2017-10-23T09:39:33.683Z,33.97
2017-10-23T09:40:14.312Z,34
2017-10-23T09:40:54.957Z,33.98